Kydon — SWBZ — position and weather

sailwx.info

Track history (hours):
 
Tides and Currents Weather Stations Pressure Air Temp Water Temp Dewpoint Dewpoint Depression Visibility Wind Speed Wind Dir Waves Ship Positions

Kydon

Last reported at 2016-Sep-25 17:33 UTC. Time now 2016-Sep-27 00:17 UTC.
Position N 37°57' E 023°38'.

Length 192 m; draft 6.1 m.

Type: Passenger vessel. MMSI: 239593000.

Date/timePositionNaut miles runAvg speedWind from/ knotsBaromVisibWave heightAir tempDewpointWater temp
2016-Sep-25 17:33N 37°57' E 023°38'0 0.0
2016-Sep-25 16:33N 37°57' E 023°38'0 0.0
2016-Sep-25 15:33N 37°57' E 023°38'0 0.0
2016-Sep-25 14:33N 37°57' E 023°38'0 0.0
2016-Sep-25 12:33N 37°57' E 023°38'0 0.0
2016-Sep-25 11:33N 37°57' E 023°38'0 0.0
2016-Sep-25 10:33N 37°57' E 023°38'0 0.0
2016-Sep-25 09:33N 37°57' E 023°38'0 0.0
2016-Sep-25 07:33N 37°57' E 023°38'0 0.0
2016-Sep-25 04:33N 37°57' E 023°38'37 9.3
2016-Sep-25 00:33N 37°21' E 023°50'37 1.8
2016-Sep-24 03:34N 37°57' E 023°38'0 0.0
2016-Sep-24 02:34N 37°57' E 023°38'0 0.0
2016-Sep-24 01:34N 37°57' E 023°38'0 0.0
2016-Sep-24 00:34N 37°57' E 023°38'0 0.0
2016-Sep-23 19:33N 37°57' E 023°38'0 0.0
2016-Sep-23 17:34N 37°57' E 023°38'0 0.0
2016-Sep-23 16:34N 37°57' E 023°38'0 0.0
2016-Sep-23 15:34N 37°57' E 023°38'0 0.0
2016-Sep-23 13:34N 37°57' E 023°38'0 0.0
2016-Sep-23 09:34N 37°57' E 023°38'0 0.0
2016-Sep-23 06:34N 37°57' E 023°38'0 0.0
2016-Sep-23 04:33N 37°57' E 023°38'0 0.0
2016-Sep-23 03:34N 37°57' E 023°38'0 0.0
2016-Sep-23 02:33N 37°57' E 023°38'0 0.0
2016-Sep-23 01:34N 37°57' E 023°38'0 0.0
2016-Sep-23 00:34N 37°57' E 023°38'0 0.0
2016-Sep-22 23:33N 37°57' E 023°38'0 0.0
2016-Sep-22 20:34N 37°57' E 023°38'0 0.0
2016-Sep-22 12:34N 37°57' E 023°38'0 0.0
2016-Sep-22 04:34N 37°57' E 023°38'0 0.0
2016-Sep-22 03:33N 37°57' E 023°38'0 0.0
2016-Sep-20 17:33N 37°57' E 023°38'0 0.0
2016-Sep-20 14:33N 37°57' E 023°38'0 0.0
2016-Sep-20 13:33N 37°57' E 023°38'0 0.0
2016-Sep-20 10:33N 37°57' E 023°38'0 0.0
2016-Sep-20 08:33N 37°57' E 023°38'0 0.0
2016-Sep-20 07:33N 37°57' E 023°38'0 0.0
2016-Sep-20 06:33N 37°57' E 023°38'1 0.2
2016-Sep-20 02:33N 37°56' E 023°38'148 6.1
2016-Sep-19 02:21N 35°31' E 024°13'12818.9
2016-Sep-18 19:33N 37°37' E 023°43'20 5.1
2016-Sep-18 15:33N 37°57' E 023°38'0 0.0
2016-Sep-18 14:33N 37°57' E 023°38'0 0.0
2016-Sep-18 10:33N 37°57' E 023°38'0 0.0
2016-Sep-18 09:33N 37°57' E 023°38'1 0.1
2016-Sep-18 02:33N 37°56' E 023°37'1817.7
2016-Sep-18 01:33N 37°40' E 023°45'1918.8
2016-Sep-18 00:33N 37°21' E 023°50'4419.1
2016-Sep-17 22:15N 36°38' E 023°59'5618.9
2016-Sep-17 19:16N 35°42' E 024°12'137 5.3
2016-Sep-16 17:34N 37°57' E 023°38'0 0.0
2016-Sep-16 15:34N 37°57' E 023°38'0 0.0
2016-Sep-16 12:33N 37°57' E 023°38'0 0.0
2016-Sep-16 09:34N 37°57' E 023°38'0 0.0
2016-Sep-16 07:33N 37°57' E 023°38'0 0.0
2016-Sep-16 03:33N 37°57' E 023°38'1 1.1
2016-Sep-16 02:33N 37°56' E 023°37'3718.5
2016-Sep-16 00:33N 37°21' E 023°50'  
Track history (hours):
 
Tides and Currents Weather Stations Pressure Air Temp Water Temp Dewpoint Dewpoint Depression Visibility Wind Speed Wind Dir Waves Ship Positions

Kydon

Last reported at 2016-Sep-25 17:33 UTC. Time now 2016-Sep-27 00:17 UTC.
Position N 37°57' E 023°38'.

Length 192 m; draft 6.1 m.

Type: Passenger vessel. MMSI: 239593000.

Date/timePositionNaut miles runAvg speedWind from/ knotsBaromVisibWave heightAir tempDewpointWater temp
2016-Sep-25 17:33N 37°57' E 023°38'0 0.0
2016-Sep-25 16:33N 37°57' E 023°38'0 0.0
2016-Sep-25 15:33N 37°57' E 023°38'0 0.0
2016-Sep-25 14:33N 37°57' E 023°38'0 0.0
2016-Sep-25 12:33N 37°57' E 023°38'0 0.0
2016-Sep-25 11:33N 37°57' E 023°38'0 0.0
2016-Sep-25 10:33N 37°57' E 023°38'0 0.0
2016-Sep-25 09:33N 37°57' E 023°38'0 0.0
2016-Sep-25 07:33N 37°57' E 023°38'0 0.0
2016-Sep-25 04:33N 37°57' E 023°38'37 9.3
2016-Sep-25 00:33N 37°21' E 023°50'37 1.8
2016-Sep-24 03:34N 37°57' E 023°38'0 0.0
2016-Sep-24 02:34N 37°57' E 023°38'0 0.0
2016-Sep-24 01:34N 37°57' E 023°38'0 0.0
2016-Sep-24 00:34N 37°57' E 023°38'0 0.0
2016-Sep-23 19:33N 37°57' E 023°38'0 0.0
2016-Sep-23 17:34N 37°57' E 023°38'0 0.0
2016-Sep-23 16:34N 37°57' E 023°38'0 0.0
2016-Sep-23 15:34N 37°57' E 023°38'0 0.0
2016-Sep-23 13:34N 37°57' E 023°38'0 0.0
2016-Sep-23 09:34N 37°57' E 023°38'0 0.0
2016-Sep-23 06:34N 37°57' E 023°38'0 0.0
2016-Sep-23 04:33N 37°57' E 023°38'0 0.0
2016-Sep-23 03:34N 37°57' E 023°38'0 0.0
2016-Sep-23 02:33N 37°57' E 023°38'0 0.0
2016-Sep-23 01:34N 37°57' E 023°38'0 0.0
2016-Sep-23 00:34N 37°57' E 023°38'0 0.0
2016-Sep-22 23:33N 37°57' E 023°38'0 0.0
2016-Sep-22 20:34N 37°57' E 023°38'0 0.0
2016-Sep-22 12:34N 37°57' E 023°38'0 0.0
2016-Sep-22 04:34N 37°57' E 023°38'0 0.0
2016-Sep-22 03:33N 37°57' E 023°38'0 0.0
2016-Sep-20 17:33N 37°57' E 023°38'0 0.0
2016-Sep-20 14:33N 37°57' E 023°38'0 0.0
2016-Sep-20 13:33N 37°57' E 023°38'0 0.0
2016-Sep-20 10:33N 37°57' E 023°38'0 0.0
2016-Sep-20 08:33N 37°57' E 023°38'0 0.0
2016-Sep-20 07:33N 37°57' E 023°38'0 0.0
2016-Sep-20 06:33N 37°57' E 023°38'1 0.2
2016-Sep-20 02:33N 37°56' E 023°38'148 6.1
2016-Sep-19 02:21N 35°31' E 024°13'12818.9
2016-Sep-18 19:33N 37°37' E 023°43'20 5.1
2016-Sep-18 15:33N 37°57' E 023°38'0 0.0
2016-Sep-18 14:33N 37°57' E 023°38'0 0.0
2016-Sep-18 10:33N 37°57' E 023°38'0 0.0
2016-Sep-18 09:33N 37°57' E 023°38'1 0.1
2016-Sep-18 02:33N 37°56' E 023°37'1817.7
2016-Sep-18 01:33N 37°40' E 023°45'1918.8
2016-Sep-18 00:33N 37°21' E 023°50'4419.1
2016-Sep-17 22:15N 36°38' E 023°59'5618.9
2016-Sep-17 19:16N 35°42' E 024°12'137 5.3
2016-Sep-16 17:34N 37°57' E 023°38'0 0.0
2016-Sep-16 15:34N 37°57' E 023°38'0 0.0
2016-Sep-16 12:33N 37°57' E 023°38'0 0.0
2016-Sep-16 09:34N 37°57' E 023°38'0 0.0
2016-Sep-16 07:33N 37°57' E 023°38'0 0.0
2016-Sep-16 03:33N 37°57' E 023°38'1 1.1
2016-Sep-16 02:33N 37°56' E 023°37'3718.5
2016-Sep-16 00:33N 37°21' E 023°50'  

Dump ship's entire track history